createdAt,value
2017-08-15T00:10:12.028Z,18
2017-08-15T00:20:27.254Z,17.7
2017-08-15T00:30:42.437Z,17.6
2017-08-15T00:40:57.497Z,17.6
2017-08-15T00:51:12.032Z,17.4
2017-08-15T01:01:26.084Z,17.4
2017-08-15T01:11:40.038Z,17.2
2017-08-15T01:21:55.330Z,16.9
2017-08-15T01:32:10.715Z,17.3
2017-08-15T01:42:24.528Z,16.9
2017-08-15T01:52:39.284Z,17
2017-08-15T02:02:54.508Z,16.7
2017-08-15T02:13:09.130Z,16.8
2017-08-15T02:23:23.675Z,16.8
2017-08-15T02:33:38.862Z,16.7
2017-08-15T02:43:54.035Z,16.6
2017-08-15T02:54:08.182Z,16.4
2017-08-15T03:04:22.293Z,16.2
2017-08-15T03:14:36.204Z,16.3
2017-08-15T03:24:50.451Z,16.1
2017-08-15T03:35:05.816Z,16.1
2017-08-15T03:45:19.641Z,16
2017-08-15T03:55:34.651Z,15.7
2017-08-15T04:05:49.829Z,16.2
2017-08-15T04:16:05.255Z,16.3
2017-08-15T04:26:20.794Z,15.8
2017-08-15T04:36:35.738Z,16.2
2017-08-15T04:46:49.524Z,16.3
2017-08-15T04:57:04.478Z,16.5
2017-08-15T05:07:18.654Z,16.6
2017-08-15T05:17:33.057Z,16.8
2017-08-15T05:27:47.244Z,16.9
2017-08-15T05:38:01.507Z,17.2
2017-08-15T05:48:16.377Z,17.7
2017-08-15T05:58:32.029Z,17.9
2017-08-15T06:08:47.170Z,18.4
2017-08-15T06:19:02.534Z,19
2017-08-15T06:29:17.090Z,19.6
2017-08-15T06:39:32.936Z,19.8
2017-08-15T06:49:47.526Z,20.4
2017-08-15T07:00:02.786Z,20.9
2017-08-15T07:10:17.689Z,21.8
2017-08-15T07:20:32.902Z,21.9
2017-08-15T07:30:47.383Z,22.4
2017-08-15T07:41:02.464Z,23.1
2017-08-15T07:51:17.448Z,24.1
2017-08-15T08:01:32.408Z,24.2
2017-08-15T08:11:46.798Z,24
2017-08-15T08:22:01.569Z,25.1
2017-08-15T08:32:17.398Z,25.3
2017-08-15T08:42:31.376Z,26.3
2017-08-15T08:52:45.525Z,25.4
2017-08-15T09:03:00.342Z,24.4
2017-08-15T09:13:14.682Z,25.4
2017-08-15T09:23:29.819Z,25.3
2017-08-15T09:33:43.742Z,25.4
2017-08-15T09:43:58.625Z,25.6
2017-08-15T09:54:12.817Z,25.2
2017-08-15T10:04:27.835Z,25.7
2017-08-15T10:14:42.571Z,25.3
2017-08-15T10:24:57.650Z,25.5
2017-08-15T10:35:12.349Z,25.5
2017-08-15T10:45:26.531Z,24.8
2017-08-15T10:55:42.215Z,24.2
2017-08-15T11:05:57.665Z,24.2
2017-08-15T11:16:12.364Z,25.4
2017-08-15T11:26:26.552Z,25.3
2017-08-15T11:36:40.882Z,25.6
2017-08-15T11:46:55.144Z,25.5
2017-08-15T11:57:09.733Z,25.3
2017-08-15T12:07:24.587Z,25.7
2017-08-15T12:17:40.448Z,27.1
2017-08-15T12:27:55.429Z,27.6
2017-08-15T12:38:11.214Z,28.3
2017-08-15T12:48:26.190Z,27.6
2017-08-15T12:58:41.164Z,26.8
2017-08-15T13:08:55.205Z,28.1
2017-08-15T13:19:10.740Z,27.3
2017-08-15T13:29:25.706Z,27.4
2017-08-15T13:39:41.288Z,28.2
2017-08-15T13:49:56.914Z,27.7
2017-08-15T14:00:11.834Z,27.2
2017-08-15T14:10:26.548Z,27.2
2017-08-15T14:20:41.304Z,26.5
2017-08-15T14:30:56.912Z,26.8
2017-08-15T14:41:12.682Z,26.1
2017-08-15T14:51:27.912Z,25.9
2017-08-15T15:01:43.076Z,25.5
2017-08-15T15:11:58.794Z,25.4
2017-08-15T15:22:14.198Z,25.2
2017-08-15T15:32:28.083Z,25.1
2017-08-15T15:42:42.943Z,25
2017-08-15T15:52:58.221Z,24.7
2017-08-15T16:03:12.443Z,24.3
2017-08-15T16:13:27.360Z,24.3
2017-08-15T16:23:43.144Z,24.2
2017-08-15T16:33:58.875Z,23.9
2017-08-15T16:44:13.295Z,23.5
2017-08-15T16:54:28.967Z,23.3
2017-08-15T17:04:44.283Z,22.9
2017-08-15T17:14:59.325Z,22.1
2017-08-15T17:25:14.593Z,22
2017-08-15T17:35:29.169Z,22.4
2017-08-15T17:45:43.108Z,22.7
2017-08-15T17:55:58.921Z,22.8
2017-08-15T18:06:14.390Z,22.6
2017-08-15T18:16:28.287Z,22.3
2017-08-15T18:26:44.053Z,22
2017-08-15T18:36:58.385Z,21.5
2017-08-15T18:47:13.660Z,21.2
2017-08-15T18:57:27.563Z,21.2
2017-08-15T19:07:42.745Z,21.2
2017-08-15T19:17:56.613Z,21.3
2017-08-15T19:28:10.925Z,21.9
2017-08-15T19:38:26.423Z,21.8
2017-08-15T19:48:41.245Z,21.7
2017-08-15T19:58:57.063Z,21.6
2017-08-15T20:09:11.862Z,21.4
2017-08-15T20:19:26.750Z,21.2
2017-08-15T20:29:42.307Z,20.9
2017-08-15T20:39:57.106Z,20.7
2017-08-15T20:50:11.610Z,20.6
2017-08-15T21:00:26.265Z,20.4
2017-08-15T21:10:40.110Z,20.2
2017-08-15T21:20:54.156Z,20
2017-08-15T21:31:08.333Z,19.7
2017-08-15T21:41:22.405Z,19.5
2017-08-15T21:51:37.036Z,19.1
2017-08-15T22:01:52.337Z,19
2017-08-15T22:12:08.038Z,19.1
2017-08-15T22:22:22.832Z,19
2017-08-15T22:32:36.641Z,18.9
2017-08-15T22:42:51.346Z,18.8
2017-08-15T22:53:05.183Z,18.6
2017-08-15T23:03:19.650Z,18.6
2017-08-15T23:13:35.168Z,18.8
2017-08-15T23:23:49.551Z,18.7
2017-08-15T23:34:04.956Z,18.8
2017-08-15T23:44:20.182Z,18.6
2017-08-15T23:54:35.427Z,18.7
